createdAt,value
2022-08-07T00:00:36.011Z,4.45
2022-08-07T00:03:08.667Z,4.78
2022-08-07T00:05:36.163Z,4.05
2022-08-07T00:08:04.596Z,4.60
2022-08-07T00:10:31.752Z,4.35
2022-08-07T00:13:03.340Z,4.65
2022-08-07T00:15:46.906Z,4.30
2022-08-07T00:18:24.069Z,4.75
2022-08-07T00:23:23.888Z,4.85
2022-08-07T00:25:58.894Z,4.63
2022-08-07T00:28:33.278Z,4.45
2022-08-07T00:31:05.717Z,4.50
2022-08-07T00:33:34.122Z,4.22
2022-08-07T00:36:01.257Z,5.30
2022-08-07T00:38:31.205Z,4.82
2022-08-07T00:40:59.602Z,4.68
2022-08-07T00:44:01.649Z,4.65
2022-08-07T00:46:13.369Z,4.60
2022-08-07T00:48:42.215Z,4.65
2022-08-07T00:51:09.290Z,4.65
2022-08-07T00:53:39.403Z,4.68
2022-08-07T00:56:17.729Z,4.65
2022-08-07T00:58:46.872Z,4.30
2022-08-07T01:01:15.262Z,5.07
2022-08-07T01:03:56.150Z,4.72
2022-08-07T01:06:28.048Z,4.65
2022-08-07T01:08:55.544Z,4.60
2022-08-07T01:12:23.838Z,5.05
2022-08-07T01:14:10.389Z,4.70
2022-08-07T01:16:37.765Z,4.60
2022-08-07T01:19:18.164Z,5.15
2022-08-07T01:21:46.743Z,4.97
2022-08-07T01:24:14.150Z,4.60
2022-08-07T01:26:51.539Z,4.57
2022-08-07T01:29:22.090Z,4.93
2022-08-07T01:31:50.192Z,4.53
2022-08-07T01:34:18.648Z,4.60
2022-08-07T01:36:52.598Z,4.78
2022-08-07T01:39:39.526Z,4.55
2022-08-07T01:42:39.658Z,5.07
2022-08-07T01:45:01.129Z,4.10
2022-08-07T01:48:19.976Z,4.78
2022-08-07T01:50:16.148Z,4.57
2022-08-07T01:52:54.073Z,4.20
2022-08-07T01:55:37.542Z,4.80
2022-08-07T01:58:29.044Z,4.68
2022-08-07T02:00:58.116Z,4.50
2022-08-07T02:03:50.303Z,4.43
2022-08-07T02:06:30.931Z,4.50
2022-08-07T02:09:04.373Z,4.55
2022-08-07T02:12:02.820Z,4.20
2022-08-07T02:14:35.730Z,3.92
2022-08-07T02:17:04.336Z,4.15
2022-08-07T02:20:06.839Z,4.20
2022-08-07T02:22:20.436Z,4.50
2022-08-07T02:24:48.742Z,4.20
2022-08-07T02:27:17.430Z,4.40
2022-08-07T02:29:54.036Z,3.83
2022-08-07T02:32:26.960Z,4.45
2022-08-07T02:34:57.912Z,4.20
2022-08-07T02:37:26.908Z,4.25
2022-08-07T02:40:02.166Z,3.90
2022-08-07T02:42:44.428Z,4.03
2022-08-07T02:45:58.938Z,3.95
2022-08-07T02:48:02.058Z,3.90
2022-08-07T02:50:30.930Z,4.25
2022-08-07T02:53:03.391Z,4.63
2022-08-07T02:56:04.250Z,4.72
2022-08-07T02:58:22.658Z,3.95
2022-08-07T03:00:56.283Z,4.13
2022-08-07T03:03:24.037Z,4.22
2022-08-07T03:05:56.486Z,4.18
2022-08-07T03:08:26.860Z,4.25
2022-08-07T03:10:58.173Z,4.03
2022-08-07T03:13:38.883Z,3.75
2022-08-07T03:16:16.609Z,4.15
2022-08-07T03:18:45.136Z,4.63
2022-08-07T03:21:18.933Z,4.40
2022-08-07T03:24:18.485Z,4.10
2022-08-07T03:26:33.740Z,4.40
2022-08-07T03:29:06.364Z,3.60
2022-08-07T03:31:42.278Z,4.25
2022-08-07T03:34:10.208Z,4.10
2022-08-07T03:36:46.066Z,4.15
2022-08-07T03:39:16.956Z,4.13
2022-08-07T03:41:50.688Z,4.60
2022-08-07T03:44:21.635Z,4.25
2022-08-07T03:47:10.990Z,4.05
2022-08-07T03:49:40.477Z,4.13
2022-08-07T03:52:22.576Z,4.03
2022-08-07T03:55:06.057Z,4.03
2022-08-07T03:59:07.201Z,4.03
2022-08-07T04:00:29.286Z,4.18
2022-08-07T04:02:59.565Z,4.28
2022-08-07T04:05:40.940Z,4.72
2022-08-07T04:08:16.224Z,4.00
2022-08-07T04:10:54.304Z,3.92
2022-08-07T04:14:10.834Z,3.92
2022-08-07T04:16:30.819Z,3.83
2022-08-07T04:19:04.361Z,3.97
2022-08-07T04:21:59.500Z,3.90
2022-08-07T04:24:34.152Z,4.15
2022-08-07T04:27:20.566Z,4.60
2022-08-07T04:30:02.230Z,4.57
2022-08-07T04:32:58.154Z,4.25
2022-08-07T04:35:28.570Z,4.22
2022-08-07T04:38:06.735Z,4.35
2022-08-07T04:40:43.922Z,4.50
2022-08-07T04:44:09.865Z,4.05
2022-08-07T04:46:12.441Z,4.25
2022-08-07T04:48:50.924Z,3.78
2022-08-07T04:51:27.758Z,4.75
2022-08-07T04:54:22.666Z,4.65
2022-08-07T04:58:27.983Z,4.25
2022-08-07T05:00:17.222Z,4.22
2022-08-07T05:03:31.054Z,4.38
2022-08-07T05:06:19.279Z,4.70
2022-08-07T05:09:02.591Z,4.63
2022-08-07T05:11:57.691Z,4.30
2022-08-07T05:14:55.861Z,5.07
2022-08-07T05:18:00.774Z,4.40
2022-08-07T05:20:11.836Z,4.53
2022-08-07T05:22:40.296Z,4.25
2022-08-07T05:25:11.766Z,4.05
2022-08-07T05:28:02.154Z,3.70
2022-08-07T05:30:40.778Z,4.70
2022-08-07T05:33:09.812Z,4.65
2022-08-07T05:35:42.251Z,4.40
2022-08-07T05:38:12.365Z,4.32
2022-08-07T05:40:50.590Z,4.10
2022-08-07T05:43:19.531Z,4.53
2022-08-07T05:46:06.534Z,4.05
2022-08-07T05:48:34.049Z,4.28
2022-08-07T05:51:02.211Z,3.92
2022-08-07T05:54:13.309Z,3.78
2022-08-07T05:56:19.553Z,5.75
2022-08-07T05:58:52.769Z,4.88
2022-08-07T06:01:23.046Z,4.32
2022-08-07T06:03:58.673Z,4.45
2022-08-07T06:06:32.821Z,3.97
2022-08-07T06:09:04.557Z,3.50
2022-08-07T06:11:34.118Z,4.07
2022-08-07T06:14:11.763Z,3.97
2022-08-07T06:16:42.466Z,4.03
2022-08-07T06:19:18.033Z,4.50
2022-08-07T06:22:14.760Z,3.80
2022-08-07T06:24:57.033Z,4.10
2022-08-07T06:28:00.702Z,3.95
2022-08-07T06:30:32.412Z,3.38
2022-08-07T06:32:59.758Z,3.97
2022-08-07T06:35:39.122Z,3.90
2022-08-07T06:38:20.269Z,3.53
2022-08-07T06:40:51.312Z,3.10
2022-08-07T06:43:22.385Z,2.53
2022-08-07T06:46:11.571Z,3.10
2022-08-07T06:48:42.037Z,3.00
2022-08-07T06:51:31.178Z,2.88
2022-08-07T06:55:30.317Z,2.83
2022-08-07T06:56:51.965Z,2.50
2022-08-07T07:00:11.760Z,3.08
2022-08-07T07:02:53.984Z,2.65
2022-08-07T07:05:06.149Z,2.80
2022-08-07T07:07:59.922Z,2.33
2022-08-07T07:10:28.128Z,2.40
2022-08-07T07:12:57.578Z,1.92
2022-08-07T07:15:35.838Z,2.30
2022-08-07T07:18:47.158Z,2.47
2022-08-07T07:21:19.572Z,2.20
2022-08-07T07:24:10.142Z,3.85
2022-08-07T07:26:37.212Z,3.47
2022-08-07T07:29:39.485Z,2.53
2022-08-07T07:31:55.645Z,2.50
2022-08-07T07:34:31.167Z,2.85
2022-08-07T07:37:14.736Z,2.13
2022-08-07T07:39:54.428Z,2.17
2022-08-07T07:42:25.832Z,2.10
2022-08-07T07:45:03.704Z,2.10
2022-08-07T07:47:51.993Z,1.80
2022-08-07T07:50:35.022Z,2.03
2022-08-07T07:53:04.159Z,2.30
2022-08-07T07:55:37.317Z,1.65
2022-08-07T07:58:05.037Z,2.20
2022-08-07T08:00:34.265Z,1.80
2022-08-07T08:04:06.281Z,2.30
2022-08-07T08:10:38.146Z,1.92
2022-08-07T08:13:06.693Z,2.03
2022-08-07T08:15:58.071Z,2.38
2022-08-07T08:18:26.051Z,1.85
2022-08-07T08:20:54.085Z,2.25
2022-08-07T08:23:39.480Z,1.92
2022-08-07T08:26:09.338Z,1.85
2022-08-07T08:28:39.245Z,2.00
2022-08-07T08:31:16.226Z,2.80
2022-08-07T08:33:49.009Z,2.30
2022-08-07T08:38:44.667Z,2.10
2022-08-07T08:41:58.622Z,2.25
2022-08-07T08:44:29.436Z,2.10
2022-08-07T08:47:51.967Z,2.00
2022-08-07T08:50:34.750Z,1.95
2022-08-07T08:53:30.035Z,2.30
2022-08-07T08:56:08.543Z,2.25
2022-08-07T08:58:54.460Z,1.73
2022-08-07T09:01:40.129Z,1.80
2022-08-07T09:04:45.313Z,1.60
2022-08-07T09:07:24.352Z,2.55
2022-08-07T09:10:13.821Z,2.20
2022-08-07T09:13:03.886Z,1.92
2022-08-07T09:16:22.034Z,1.85
2022-08-07T09:18:58.801Z,2.03
2022-08-07T09:22:22.887Z,2.17
2022-08-07T09:25:00.484Z,2.28
2022-08-07T09:27:59.831Z,2.17
2022-08-07T09:30:32.186Z,2.00
2022-08-07T09:33:16.816Z,2.15
2022-08-07T09:36:15.218Z,2.30
2022-08-07T09:39:11.426Z,1.98
2022-08-07T09:42:05.898Z,2.47
2022-08-07T09:46:28.663Z,1.83
2022-08-07T09:48:00.360Z,1.70
2022-08-07T09:50:40.408Z,2.05
2022-08-07T09:53:09.284Z,2.05
2022-08-07T09:56:04.181Z,1.98
2022-08-07T09:58:32.439Z,1.83
2022-08-07T10:01:51.575Z,2.08
2022-08-07T10:04:47.749Z,2.15
2022-08-07T10:07:55.350Z,2.40
2022-08-07T10:11:16.949Z,2.17
2022-08-07T10:14:15.249Z,2.05
2022-08-07T10:16:56.002Z,1.75
2022-08-07T10:19:48.100Z,2.33
2022-08-07T10:22:33.418Z,2.30
2022-08-07T10:25:16.009Z,2.60
2022-08-07T10:28:08.131Z,2.05
2022-08-07T10:30:57.519Z,2.05
2022-08-07T10:34:05.706Z,2.05
2022-08-07T10:37:12.331Z,2.13
2022-08-07T10:40:06.145Z,2.17
2022-08-07T10:42:57.156Z,2.42
2022-08-07T10:45:48.113Z,2.58
2022-08-07T10:48:56.662Z,2.40
2022-08-07T10:51:39.070Z,2.08
2022-08-07T10:55:08.019Z,2.42
2022-08-07T10:58:15.483Z,2.00
2022-08-07T11:01:11.377Z,2.22
2022-08-07T11:03:55.253Z,2.30
2022-08-07T11:06:55.052Z,2.40
2022-08-07T11:10:09.132Z,2.40
2022-08-07T11:12:31.377Z,2.35
2022-08-07T11:15:09.618Z,2.10
2022-08-07T11:18:03.767Z,2.10
2022-08-07T11:20:43.489Z,2.15
2022-08-07T11:23:41.275Z,2.63
2022-08-07T11:26:25.344Z,1.77
2022-08-07T11:29:41.791Z,2.08
2022-08-07T11:32:10.019Z,2.00
2022-08-07T11:34:52.876Z,2.38
2022-08-07T11:37:58.443Z,2.20
2022-08-07T11:40:34.158Z,2.10
2022-08-07T11:43:15.364Z,2.50
2022-08-07T11:45:53.701Z,2.00
2022-08-07T11:49:27.861Z,2.17
2022-08-07T11:51:52.611Z,1.90
2022-08-07T11:54:46.456Z,2.50
2022-08-07T11:57:59.478Z,2.13
2022-08-07T12:00:28.561Z,2.20
2022-08-07T12:03:01.889Z,2.00
2022-08-07T12:05:48.947Z,1.95
2022-08-07T12:08:31.827Z,2.17
2022-08-07T12:11:21.562Z,2.00
2022-08-07T12:14:09.767Z,1.98
2022-08-07T12:17:01.971Z,2.40
2022-08-07T12:19:56.354Z,1.70
2022-08-07T12:22:39.274Z,1.85
2022-08-07T12:26:21.817Z,1.80
2022-08-07T12:28:44.740Z,1.88
2022-08-07T12:31:22.406Z,2.17
2022-08-07T12:33:56.242Z,2.28
2022-08-07T12:36:33.430Z,2.20
2022-08-07T12:39:04.962Z,2.20
2022-08-07T12:41:54.826Z,2.10
2022-08-07T12:44:21.818Z,1.95
2022-08-07T12:47:06.258Z,2.10
2022-08-07T12:49:48.835Z,1.75
2022-08-07T12:52:29.049Z,2.22
2022-08-07T12:55:17.513Z,1.80
2022-08-07T13:00:50.275Z,1.77
2022-08-07T13:03:54.855Z,2.08
2022-08-07T13:06:54.190Z,1.83
2022-08-07T13:10:21.489Z,1.70
2022-08-07T13:13:48.234Z,1.90
2022-08-07T13:16:14.866Z,1.70
2022-08-07T13:19:18.472Z,1.95
2022-08-07T13:22:09.719Z,2.22
2022-08-07T13:24:54.138Z,1.73
2022-08-07T13:28:11.434Z,1.60
2022-08-07T13:30:40.965Z,1.75
2022-08-07T13:34:31.954Z,1.80
2022-08-07T13:36:21.595Z,1.80
2022-08-07T13:39:49.727Z,1.67
2022-08-07T13:42:10.453Z,1.80
2022-08-07T13:44:38.860Z,1.80
2022-08-07T13:47:09.559Z,2.08
2022-08-07T13:50:32.600Z,1.70
2022-08-07T13:52:36.196Z,2.05
2022-08-07T13:55:19.314Z,1.90
2022-08-07T13:58:03.968Z,1.95
2022-08-07T14:00:39.741Z,1.42
2022-08-07T14:03:29.549Z,2.08
2022-08-07T14:06:12.179Z,1.90
2022-08-07T14:08:53.737Z,1.67
2022-08-07T14:11:22.370Z,1.97
2022-08-07T14:13:55.860Z,1.55
2022-08-07T14:16:31.352Z,1.65
2022-08-07T14:18:58.333Z,1.60
2022-08-07T14:22:04.141Z,1.73
2022-08-07T14:24:26.811Z,1.88
2022-08-07T14:26:59.351Z,1.80
2022-08-07T14:30:06.413Z,1.63
2022-08-07T14:32:24.840Z,1.77
2022-08-07T14:34:52.512Z,1.50
2022-08-07T14:37:23.884Z,1.73
2022-08-07T14:40:19.725Z,1.65
2022-08-07T14:43:01.424Z,1.65
2022-08-07T14:45:49.647Z,1.55
2022-08-07T14:48:20.963Z,1.55
2022-08-07T14:50:53.348Z,2.05
2022-08-07T14:54:03.487Z,1.65
2022-08-07T14:56:08.803Z,1.50
2022-08-07T14:58:43.109Z,1.92
2022-08-07T15:01:22.364Z,1.52
2022-08-07T15:03:51.857Z,2.03
2022-08-07T15:06:25.172Z,1.98
2022-08-07T15:08:54.736Z,1.75
2022-08-07T15:11:53.575Z,2.13
2022-08-07T15:14:16.651Z,2.05
2022-08-07T15:16:54.839Z,2.40
2022-08-07T15:20:31.900Z,2.22
2022-08-07T15:22:22.118Z,2.22
2022-08-07T15:25:16.379Z,2.40
2022-08-07T15:28:30.887Z,2.78
2022-08-07T15:30:31.645Z,1.95
2022-08-07T15:33:03.959Z,2.25
2022-08-07T15:36:00.516Z,2.38
2022-08-07T15:41:24.033Z,2.22
2022-08-07T15:44:07.016Z,1.80
2022-08-07T15:46:38.344Z,2.10
2022-08-07T15:54:27.307Z,1.90
2022-08-07T15:56:54.173Z,1.80
2022-08-07T15:59:39.594Z,2.15
2022-08-07T16:02:09.365Z,1.92
2022-08-07T16:04:41.936Z,2.35
2022-08-07T16:08:31.924Z,1.92
2022-08-07T16:10:14.782Z,2.10
2022-08-07T16:13:39.517Z,2.05
2022-08-07T16:16:47.516Z,1.83
2022-08-07T16:19:42.041Z,2.17
2022-08-07T16:22:55.764Z,1.88
2022-08-07T16:25:54.340Z,2.28
2022-08-07T16:29:18.227Z,2.13
2022-08-07T16:31:51.723Z,2.08
2022-08-07T16:34:37.763Z,2.03
2022-08-07T16:38:06.694Z,2.00
2022-08-07T16:41:02.077Z,1.80
2022-08-07T16:44:31.815Z,1.90
2022-08-07T16:47:38.613Z,2.10
2022-08-07T16:50:35.542Z,2.20
2022-08-07T16:54:01.547Z,2.10
2022-08-07T16:56:32.303Z,2.20
2022-08-07T16:59:19.053Z,1.92
2022-08-07T17:02:09.023Z,2.15
2022-08-07T17:04:51.004Z,1.80
2022-08-07T17:07:55.413Z,1.75
2022-08-07T17:10:32.833Z,1.90
2022-08-07T17:13:41.887Z,1.80
2022-08-07T17:16:43.632Z,2.00
2022-08-07T17:19:16.689Z,2.00
2022-08-07T17:21:51.889Z,1.80
2022-08-07T17:24:42.726Z,1.67
2022-08-07T17:27:39.898Z,1.88
2022-08-07T17:30:20.792Z,1.50
2022-08-07T17:34:09.492Z,1.88
2022-08-07T17:36:13.603Z,2.00
2022-08-07T17:38:55.442Z,1.88
2022-08-07T17:42:04.422Z,1.92
2022-08-07T17:44:46.857Z,1.80
2022-08-07T17:47:38.306Z,1.95
2022-08-07T17:50:20.589Z,2.20
2022-08-07T17:53:59.926Z,1.52
2022-08-07T17:56:06.936Z,1.80
2022-08-07T17:58:58.239Z,1.83
2022-08-07T18:02:03.956Z,1.92
2022-08-07T18:04:38.134Z,1.88
2022-08-07T18:07:20.503Z,2.10
2022-08-07T18:10:05.578Z,2.28
2022-08-07T18:18:47.730Z,1.85
2022-08-07T18:21:37.088Z,2.17
2022-08-07T18:24:33.889Z,2.10
2022-08-07T18:27:39.189Z,2.10
2022-08-07T18:30:32.333Z,1.88
2022-08-07T18:33:35.286Z,1.92
2022-08-07T18:36:33.095Z,1.85
2022-08-07T18:40:05.128Z,2.03
2022-08-07T18:42:46.010Z,1.73
2022-08-07T18:45:43.049Z,2.00
2022-08-07T18:50:06.767Z,1.75
2022-08-07T18:52:41.086Z,2.00
2022-08-07T18:55:42.804Z,2.10
2022-08-07T18:58:42.599Z,1.92
2022-08-07T19:01:09.643Z,1.92
2022-08-07T19:04:09.801Z,1.90
2022-08-07T19:06:48.283Z,2.17
2022-08-07T19:09:57.542Z,1.90
2022-08-07T19:12:19.834Z,2.45
2022-08-07T19:16:02.310Z,2.30
2022-08-07T19:18:09.064Z,2.25
2022-08-07T19:21:09.299Z,2.05
2022-08-07T19:23:57.316Z,2.17
2022-08-07T19:26:29.569Z,2.30
2022-08-07T19:30:58.780Z,1.85
2022-08-07T19:32:11.533Z,2.17
2022-08-07T19:34:40.318Z,2.40
2022-08-07T19:37:10.414Z,2.20
2022-08-07T19:39:56.366Z,2.45
2022-08-07T19:42:25.027Z,2.42
2022-08-07T19:44:52.792Z,2.60
2022-08-07T19:47:27.484Z,2.28
2022-08-07T19:49:57.845Z,2.08
2022-08-07T19:52:26.399Z,1.92
2022-08-07T19:54:58.229Z,2.50
2022-08-07T19:58:00.066Z,2.35
2022-08-07T20:00:36.570Z,2.20
2022-08-07T20:03:32.752Z,2.13
2022-08-07T20:06:00.609Z,2.45
2022-08-07T20:08:30.978Z,2.28
2022-08-07T20:11:10.321Z,2.40
2022-08-07T20:13:42.095Z,2.30
2022-08-07T20:16:31.914Z,2.40
2022-08-07T20:18:57.783Z,2.22
2022-08-07T20:21:25.141Z,2.25
2022-08-07T20:24:00.335Z,2.60
2022-08-07T20:26:38.657Z,2.38
2022-08-07T20:29:46.742Z,2.70
2022-08-07T20:32:04.880Z,2.78
2022-08-07T20:34:49.502Z,2.60
2022-08-07T20:37:26.537Z,2.33
2022-08-07T20:40:04.252Z,2.38
2022-08-07T20:42:33.492Z,2.78
2022-08-07T20:45:01.271Z,2.50
2022-08-07T20:47:56.802Z,2.20
2022-08-07T20:50:18.301Z,2.35
2022-08-07T20:52:51.742Z,2.38
2022-08-07T20:55:24.103Z,2.28
2022-08-07T20:58:03.630Z,2.40
2022-08-07T21:00:42.191Z,2.63
2022-08-07T21:03:10.917Z,2.60
2022-08-07T21:05:51.461Z,2.50
2022-08-07T21:08:36.786Z,3.03
2022-08-07T21:11:10.429Z,3.00
2022-08-07T21:13:43.874Z,2.80
2022-08-07T21:17:06.405Z,2.50
2022-08-07T21:19:51.016Z,2.42
2022-08-07T21:22:28.521Z,2.70
2022-08-07T21:25:16.740Z,2.53
2022-08-07T21:27:53.825Z,2.70
2022-08-07T21:30:23.569Z,3.10
2022-08-07T21:33:06.545Z,2.88
2022-08-07T21:36:03.956Z,2.90
2022-08-07T21:38:44.438Z,2.95
2022-08-07T21:41:37.828Z,2.70
2022-08-07T21:44:29.900Z,3.00
2022-08-07T21:47:12.350Z,2.83
2022-08-07T21:50:01.297Z,2.90
2022-08-07T21:53:00.327Z,2.80
2022-08-07T21:55:34.755Z,3.33
2022-08-07T21:58:32.188Z,3.22
2022-08-07T22:01:03.061Z,3.13
2022-08-07T22:03:52.027Z,3.05
2022-08-07T22:06:31.287Z,2.83
2022-08-07T22:09:12.263Z,2.93
2022-08-07T22:12:05.913Z,2.85
2022-08-07T22:14:36.451Z,3.53
2022-08-07T22:17:04.230Z,3.20
2022-08-07T22:19:54.545Z,3.33
2022-08-07T22:22:28.874Z,3.23
2022-08-07T22:25:03.273Z,3.17
2022-08-07T22:30:21.384Z,2.65
2022-08-07T22:33:09.303Z,2.97
2022-08-07T22:35:55.919Z,3.35
2022-08-07T22:38:33.681Z,2.95
2022-08-07T22:41:07.427Z,2.80
2022-08-07T22:43:47.499Z,3.33
2022-08-07T22:46:46.939Z,3.33
2022-08-07T22:49:42.860Z,2.83
2022-08-07T22:52:49.965Z,3.17
2022-08-07T22:55:39.090Z,3.08
2022-08-07T22:58:11.958Z,2.78
2022-08-07T23:01:05.191Z,3.08
2022-08-07T23:03:57.993Z,3.15
2022-08-07T23:06:51.628Z,2.88
2022-08-07T23:10:04.288Z,3.13
2022-08-07T23:12:42.520Z,2.75
2022-08-07T23:16:04.293Z,3.28
2022-08-07T23:18:22.807Z,3.33
2022-08-07T23:21:16.343Z,2.75
2022-08-07T23:24:04.402Z,2.97
2022-08-07T23:26:49.949Z,3.15
2022-08-07T23:30:38.896Z,3.20
2022-08-07T23:34:36.192Z,2.80
2022-08-07T23:36:31.287Z,2.95
2022-08-07T23:39:21.992Z,2.90
2022-08-07T23:42:15.675Z,2.80
2022-08-07T23:44:52.015Z,3.08
2022-08-07T23:47:21.928Z,2.72
2022-08-07T23:50:16.748Z,3.20
2022-08-07T23:53:01.378Z,2.90
2022-08-07T23:55:58.004Z,3.03
2022-08-07T23:58:29.678Z,2.97
